Time;durP1;ratioP1;P1;durP2;ratioP2;P2;SDS_P1;SDS_P2;PMS_P1;PMS_P2;Temp;Humidity;BMP_temperature;BMP_pressure;BME280_temperature;BME280_humidity;BME280_pressure;Samples;Min_cycle;Max_cycle;Signal;HPM_P1;HPM_P2
2023/01/08 00:00:21;;;;;;;;;;;;;;;-143.48;85.38;118439.88;5056174;28;20283;-67
2023/01/08 00:02:48;;;;;;;;;;;;;;;-143.48;85.75;118439.88;5056152;28;19947;-67
2023/01/08 00:05:13;;;;;;;;;;;;;;;-143.48;85.68;118439.88;5056405;28;19913;-67
2023/01/08 00:07:39;;;;;;;;;;;;;;;-143.48;85.43;118439.88;5055979;28;19916;-67
2023/01/08 00:10:04;;;;;;;;;;;;;;;-143.48;84.81;118439.88;5055955;28;19948;-68
2023/01/08 00:12:29;;;;;;;;;;;;;;;-143.48;84.48;118439.88;5056107;28;19908;-67
2023/01/08 00:14:54;;;;;;;;;;;;;;;-143.48;83.85;118439.88;5055851;28;20291;-67
2023/01/08 00:17:20;;;;;;;;;;;;;;;-143.48;84.27;118439.88;5055829;28;19920;-67
2023/01/08 00:19:45;;;;;;;;;;;;;;;-143.48;84.19;118439.88;5055809;28;19909;-67
2023/01/08 00:22:10;;;;;;;;;;;;;;;-143.48;84.08;118439.88;5055989;28;20007;-67
2023/01/08 00:24:35;;;;;;;;;;;;;;;-143.48;83.27;118439.88;5038044;28;19919;-67
2023/01/08 00:27:00;;;;;;;;;;;;;;;-143.48;83.50;118439.88;5054590;28;20339;-67
2023/01/08 00:29:26;;;;;;;;;;;;;;;-143.48;83.25;118439.88;5055581;28;19909;-66
2023/01/08 00:31:51;;;;;;;;;;;;;;;-143.48;83.10;118439.88;5055682;28;19931;-67
2023/01/08 00:34:16;;;;;;;;;;;;;;;-143.48;83.07;118439.88;5055869;28;20303;-67
2023/01/08 00:36:41;;;;;;;;;;;;;;;-143.48;82.01;118439.88;5055410;28;19948;-66
2023/01/08 00:39:06;;;;;;;;;;;;;;;-143.48;82.04;118439.88;5055375;28;19959;-68
2023/01/08 00:41:32;;;;;;;;;;;;;;;-143.48;82.77;118439.88;5055346;28;20360;-67
2023/01/08 00:43:57;;;;;;;;;;;;;;;-143.48;82.50;118439.88;5055398;28;19909;-67
2023/01/08 00:46:22;;;;;;;;;;;;;;;-143.48;83.14;118439.88;5055245;28;19982;-66
2023/01/08 00:48:47;;;;;;;;;;;;;;;-143.48;82.79;118439.88;5055331;28;19952;-67
2023/01/08 00:51:12;;;;;;;;;;;;;;;-143.48;83.46;118439.88;5055307;28;19909;-67
2023/01/08 00:53:38;;;;;;;;;;;;;;;-143.48;84.13;118439.88;5036423;28;19995;-67
2023/01/08 00:56:04;;;;;;;;;;;;;;;-143.48;84.84;118439.88;5055210;28;19909;-67
2023/01/08 00:58:30;;;;;;;;;;;;;;;-143.48;86.15;118439.88;5055088;28;19909;-67
2023/01/08 01:00:55;;;;;;;;;;;;;;;-143.48;86.40;118439.88;5055456;28;19982;-67
2023/01/08 01:03:20;;;;;;;;;;;;;;;-143.48;87.23;118439.88;5055006;28;19912;-67
2023/01/08 01:05:45;;;;;;;;;;;;;;;-143.48;87.50;118439.88;5055050;28;19912;-67
2023/01/08 01:08:10;;;;;;;;;;;;;;;-143.48;88.41;118439.88;5055049;28;19920;-67
2023/01/08 01:10:37;;;;;;;;;;;;;;;-143.48;87.73;118439.88;5054953;28;19908;-67
2023/01/08 01:13:02;;;;;;;;;;;;;;;-143.48;88.51;118439.88;5054899;28;19931;-67
2023/01/08 01:15:27;;;;;;;;;;;;;;;-143.48;88.79;118439.88;5054852;28;20368;-67
2023/01/08 01:17:52;;;;;;;;;;;;;;;-143.48;88.82;118439.88;5037506;28;19909;-67
2023/01/08 01:20:18;;;;;;;;;;;;;;;-143.48;89.54;118439.88;5054923;28;19932;-67
2023/01/08 01:22:43;;;;;;;;;;;;;;;-143.48;89.85;118439.88;5055130;28;19913;-67
2023/01/08 01:25:08;;;;;;;;;;;;;;;-143.48;90.04;118439.88;5054594;28;20398;-67
2023/01/08 01:27:34;;;;;;;;;;;;;;;-143.48;89.98;118439.88;5054636;28;19908;-67
2023/01/08 01:29:59;;;;;;;;;;;;;;;-143.48;89.94;118439.88;5054587;28;19956;-67
2023/01/08 01:32:24;;;;;;;;;;;;;;;-143.48;90.16;118439.88;5036562;28;19915;-67
2023/01/08 01:34:49;;;;;;;;;;;;;;;-143.48;91.35;118439.88;5054468;28;20327;-67
2023/01/08 01:37:14;;;;;;;;;;;;;;;-143.48;91.05;118439.88;5054099;28;19916;-67
2023/01/08 01:39:42;;;;;;;;;;;;;;;-143.48;91.52;118439.88;5036480;28;19944;-67
2023/01/08 01:42:38;;;;;;;;;;;;;;;-143.48;91.31;118439.88;5054299;28;20293;-67
2023/01/08 01:44:55;;;;;;;;;;;;;;;-143.48;91.38;118439.88;5053932;28;19913;-67
2023/01/08 01:47:24;;;;;;;;;;;;;;;-143.48;91.19;118439.88;5053974;28;19924;-67
2023/01/08 01:50:01;;;;;;;;;;;;;;;-143.48;91.23;118439.88;5036164;28;19909;-67
2023/01/08 01:52:29;;;;;;;;;;;;;;;-143.48;91.59;118439.88;5035740;28;19909;-67
2023/01/08 01:54:55;;;;;;;;;;;;;;;-143.48;91.70;118439.88;5054020;28;20386;-67
2023/01/08 01:57:21;;;;;;;;;;;;;;;-143.48;91.59;118439.88;5053196;28;20344;-67
2023/01/08 01:59:47;;;;;;;;;;;;;;;-143.48;91.13;118439.88;5053933;28;19994;-67
2023/01/08 02:02:12;;;;;;;;;;;;;;;-143.48;90.95;118439.88;5053785;28;19915;-67
2023/01/08 02:04:37;;;;;;;;;;;;;;;-143.48;90.79;118439.88;5036053;28;20244;-67
2023/01/08 02:07:11;;;;;;;;;;;;;;;-143.48;89.92;118439.88;5053784;28;19908;-66
2023/01/08 02:09:57;;;;;;;;;;;;;;;-143.48;89.23;118439.88;5053799;28;19958;-68
2023/01/08 02:12:25;;;;;;;;;;;;;;;-143.48;88.53;118439.88;5053176;28;20384;-67
2023/01/08 02:15:00;;;;;;;;;;;;;;;-143.48;88.33;118439.88;5053707;28;19962;-68
2023/01/08 02:17:32;;;;;;;;;;;;;;;-143.48;87.70;118439.88;5035800;28;19909;-67
2023/01/08 02:20:01;;;;;;;;;;;;;;;-143.48;87.08;118439.88;5053639;28;19908;-67
2023/01/08 02:22:26;;;;;;;;;;;;;;;-143.48;86.33;118439.88;5053749;28;20284;-67
2023/01/08 02:24:54;;;;;;;;;;;;;;;-143.48;86.39;118439.88;5053532;28;19997;-67
2023/01/08 02:27:21;;;;;;;;;;;;;;;-143.48;86.29;118439.88;5053745;28;19955;-67
2023/01/08 02:29:46;;;;;;;;;;;;;;;-143.48;86.09;118439.88;5053628;28;19912;-67
2023/01/08 02:32:12;;;;;;;;;;;;;;;-143.48;85.82;118439.88;5053515;28;20000;-67
2023/01/08 02:34:37;;;;;;;;;;;;;;;-143.48;86.01;118439.88;5053540;28;19916;-67
2023/01/08 02:37:03;;;;;;;;;;;;;;;-143.48;86.02;118439.88;5053539;28;20285;-67
2023/01/08 02:39:30;;;;;;;;;;;;;;;-143.48;85.49;118439.88;5053571;28;20043;-67
2023/01/08 02:42:02;;;;;;;;;;;;;;;-143.48;85.81;118439.88;5053544;28;19908;-67
2023/01/08 02:44:29;;;;;;;;;;;;;;;-143.48;85.58;118439.88;5053298;28;19912;-67
2023/01/08 02:46:55;;;;;;;;;;;;;;;-143.48;85.62;118439.88;5053208;28;20287;-67
2023/01/08 02:49:23;;;;;;;;;;;;;;;-143.48;86.17;118439.88;5054579;28;19912;-67
2023/01/08 02:51:51;;;;;;;;;;;;;;;-143.48;85.72;118439.88;5057372;28;19931;-67
2023/01/08 02:54:20;;;;;;;;;;;;;;;-143.48;86.04;118439.88;5057464;28;19909;-67
2023/01/08 02:56:48;;;;;;;;;;;;;;;-143.48;85.87;118439.88;5057382;28;19908;-67
2023/01/08 02:59:14;;;;;;;;;;;;;;;-143.48;86.48;118439.88;5057259;28;20316;-67
2023/01/08 03:01:40;;;;;;;;;;;;;;;-143.48;85.99;118439.88;5039330;28;19963;-67
2023/01/08 03:04:08;;;;;;;;;;;;;;;-143.48;85.90;118439.88;5039358;28;19971;-67
2023/01/08 03:06:34;;;;;;;;;;;;;;;-143.48;85.78;118439.88;5057096;28;19974;-67
2023/01/08 03:08:59;;;;;;;;;;;;;;;-143.48;85.58;118439.88;5057370;28;19909;-67
2023/01/08 03:11:28;;;;;;;;;;;;;;;-143.48;85.12;118439.88;5057031;28;19948;-67
2023/01/08 03:14:01;;;;;;;;;;;;;;;-143.48;85.11;118439.88;5057049;28;19931;-67
2023/01/08 03:16:26;;;;;;;;;;;;;;;-143.48;85.69;118439.88;5057113;28;19999;-67
2023/01/08 03:18:55;;;;;;;;;;;;;;;-143.48;85.50;118439.88;5039192;28;19956;-67
2023/01/08 03:21:21;;;;;;;;;;;;;;;-143.48;84.85;118439.88;5057071;28;19930;-67
2023/01/08 03:23:47;;;;;;;;;;;;;;;-143.48;84.26;118439.88;5057026;28;19916;-67
2023/01/08 03:26:14;;;;;;;;;;;;;;;-143.48;84.09;118439.88;5056915;28;19920;-67
2023/01/08 03:28:45;;;;;;;;;;;;;;;-143.48;82.91;118439.88;5056816;28;20384;-67
2023/01/08 03:31:12;;;;;;;;;;;;;;;-143.48;82.30;118439.88;5057023;28;20368;-67
2023/01/08 03:33:38;;;;;;;;;;;;;;;-143.48;82.05;118439.88;5056751;28;19956;-67
2023/01/08 03:36:04;;;;;;;;;;;;;;;-143.48;80.40;118439.88;5056822;28;19967;-67
2023/01/08 03:38:31;;;;;;;;;;;;;;;-143.48;80.44;118439.88;5056685;28;19915;-67
2023/01/08 03:41:00;;;;;;;;;;;;;;;-143.48;80.36;118439.88;5056625;28;19962;-67
2023/01/08 03:43:25;;;;;;;;;;;;;;;-143.48;80.82;118439.88;5038650;28;20008;-67
2023/01/08 03:45:54;;;;;;;;;;;;;;;-143.48;79.71;118439.88;5056487;28;20380;-68
2023/01/08 03:48:20;;;;;;;;;;;;;;;-143.48;78.74;118439.88;5056483;28;19909;-67
2023/01/08 03:50:46;;;;;;;;;;;;;;;-143.48;78.27;118439.88;5056405;28;19962;-67
2023/01/08 03:53:11;;;;;;;;;;;;;;;-143.48;78.25;118439.88;5056450;28;19912;-67
2023/01/08 03:55:36;;;;;;;;;;;;;;;-143.48;77.62;118439.88;5056203;28;19999;-68
2023/01/08 03:58:01;;;;;;;;;;;;;;;-143.48;77.54;118439.88;5056367;28;19909;-67
2023/01/08 04:00:27;;;;;;;;;;;;;;;-143.48;78.12;118439.88;5056292;28;20379;-67
2023/01/08 04:02:52;;;;;;;;;;;;;;;-143.48;77.96;118439.88;5056224;28;20261;-67
2023/01/08 04:05:17;;;;;;;;;;;;;;;-143.48;78.14;118439.88;5056062;28;20006;-67
2023/01/08 04:07:42;;;;;;;;;;;;;;;-143.48;79.33;118439.88;5056212;28;19909;-67
2023/01/08 04:10:08;;;;;;;;;;;;;;;-143.48;79.29;118439.88;5056403;28;19915;-67
2023/01/08 04:12:33;;;;;;;;;;;;;;;-143.48;79.53;118439.88;5056221;28;20292;-67
2023/01/08 04:14:58;;;;;;;;;;;;;;;-143.48;80.16;118439.88;5038520;28;19908;-67
2023/01/08 04:17:24;;;;;;;;;;;;;;;-143.48;80.53;118439.88;5038474;28;19959;-66
2023/01/08 04:19:49;;;;;;;;;;;;;;;-143.48;80.74;118439.88;5039204;28;19909;-67
2023/01/08 04:22:14;;;;;;;;;;;;;;;-143.48;80.11;118439.88;5056295;28;20372;-67
2023/01/08 04:24:39;;;;;;;;;;;;;;;-143.48;80.29;118439.88;5056418;28;19951;-67
2023/01/08 04:27:04;;;;;;;;;;;;;;;-143.48;79.61;118439.88;5056783;28;19912;-67
2023/01/08 04:29:29;;;;;;;;;;;;;;;-143.48;80.24;118439.88;5056947;28;19913;-69
2023/01/08 04:31:55;;;;;;;;;;;;;;;-143.48;80.21;118439.88;5056645;28;19908;-67
2023/01/08 04:34:20;;;;;;;;;;;;;;;-143.48;81.53;118439.88;5061079;28;20256;-67
2023/01/08 04:36:45;;;;;;;;;;;;;;;-143.48;82.04;118439.88;5062841;28;19952;-67
2023/01/08 04:39:10;;;;;;;;;;;;;;;-143.48;82.15;118439.88;5063626;28;19942;-67
2023/01/08 04:41:36;;;;;;;;;;;;;;;-143.48;81.69;118439.88;5064229;28;19915;-67
2023/01/08 04:44:01;;;;;;;;;;;;;;;-143.48;81.66;118439.88;5063859;28;20003;-67
2023/01/08 04:46:26;;;;;;;;;;;;;;;-143.48;81.69;118439.88;5063508;28;19916;-67
2023/01/08 04:48:51;;;;;;;;;;;;;;;-143.48;81.38;118439.88;5063242;28;20364;-67
2023/01/08 04:51:16;;;;;;;;;;;;;;;-143.48;81.69;118439.88;5063766;28;19915;-68
2023/01/08 04:53:42;;;;;;;;;;;;;;;-143.48;81.89;118439.88;5045670;28;19916;-67
2023/01/08 04:56:08;;;;;;;;;;;;;;;-143.48;82.72;118439.88;5066356;28;19916;-69
2023/01/08 04:58:34;;;;;;;;;;;;;;;-143.48;83.10;118439.88;5068923;28;19962;-68
2023/01/08 05:00:59;;;;;;;;;;;;;;;-143.48;83.84;118439.88;5068753;28;20286;-69
2023/01/08 05:03:25;;;;;;;;;;;;;;;-143.48;83.46;118439.88;5051239;28;19955;-72
2023/01/08 05:05:50;;;;;;;;;;;;;;;-143.48;83.81;118439.88;5050597;28;19920;-70
2023/01/08 05:08:15;;;;;;;;;;;;;;;-143.48;84.13;118439.88;5068393;28;19909;-70
2023/01/08 05:10:40;;;;;;;;;;;;;;;-143.48;84.18;118439.88;5068234;28;19912;-71
2023/01/08 05:13:05;;;;;;;;;;;;;;;-143.48;83.66;118439.88;5047491;28;19909;-68
2023/01/08 05:15:31;;;;;;;;;;;;;;;-143.48;83.91;118439.88;5059671;28;19962;-67
2023/01/08 05:17:56;;;;;;;;;;;;;;;-143.48;83.79;118439.88;5058598;28;20269;-67
2023/01/08 05:20:22;;;;;;;;;;;;;;;-143.48;83.50;118439.88;5040280;28;19992;-67
2023/01/08 05:22:47;;;;;;;;;;;;;;;-143.48;83.30;118439.88;5058226;28;19963;-67
2023/01/08 05:25:12;;;;;;;;;;;;;;;-143.48;83.30;118439.88;5057237;28;19920;-67
2023/01/08 05:27:37;;;;;;;;;;;;;;;-143.48;84.03;118439.88;5056958;28;19908;-67
2023/01/08 05:30:03;;;;;;;;;;;;;;;-143.48;83.95;118439.88;5056547;28;19957;-68
2023/01/08 05:32:28;;;;;;;;;;;;;;;-143.48;84.24;118439.88;5055992;28;20407;-67
2023/01/08 05:34:53;;;;;;;;;;;;;;;-143.48;84.40;118439.88;5055538;28;19908;-67
2023/01/08 05:37:18;;;;;;;;;;;;;;;-143.48;84.88;118439.88;5055036;28;19908;-67
2023/01/08 05:39:43;;;;;;;;;;;;;;;-143.48;84.60;118439.88;5054664;28;20419;-68
2023/01/08 05:42:08;;;;;;;;;;;;;;;-143.48;85.58;118439.88;5054424;28;19909;-67
2023/01/08 05:44:34;;;;;;;;;;;;;;;-143.48;85.96;118439.88;5054646;28;19908;-67
2023/01/08 05:46:59;;;;;;;;;;;;;;;-143.48;85.83;118439.88;5054533;28;20387;-67
2023/01/08 05:49:24;;;;;;;;;;;;;;;-143.48;86.12;118439.88;5054290;28;20014;-67
2023/01/08 05:51:49;;;;;;;;;;;;;;;-143.48;86.40;118439.88;5054181;28;20020;-67
2023/01/08 05:54:15;;;;;;;;;;;;;;;-143.48;86.87;118439.88;5054423;28;19915;-67
2023/01/08 05:56:42;;;;;;;;;;;;;;;-143.48;87.07;118439.88;5054212;28;20121;-67
2023/01/08 05:59:09;;;;;;;;;;;;;;;-143.48;86.94;118439.88;5054351;28;19909;-67
2023/01/08 06:01:34;;;;;;;;;;;;;;;-143.48;87.75;118439.88;5054007;28;19909;-68
2023/01/08 06:04:00;;;;;;;;;;;;;;;-143.48;87.83;118439.88;5053973;28;19915;-67
2023/01/08 06:06:25;;;;;;;;;;;;;;;-143.48;87.81;118439.88;5054174;28;20347;-67
2023/01/08 06:08:50;;;;;;;;;;;;;;;-143.48;87.91;118439.88;5054278;28;19926;-68
2023/01/08 06:11:15;;;;;;;;;;;;;;;-143.48;88.35;118439.88;5057882;28;19916;-68
2023/01/08 06:13:43;;;;;;;;;;;;;;;-143.48;88.82;118439.88;5037092;28;20364;-67
2023/01/08 06:16:09;;;;;;;;;;;;;;;-143.48;88.93;118439.88;5059372;28;19916;-69
2023/01/08 06:18:34;;;;;;;;;;;;;;;-143.48;89.08;118439.88;5063020;28;19909;-70
2023/01/08 06:21:00;;;;;;;;;;;;;;;-143.48;88.91;118439.88;5061055;28;19909;-68
2023/01/08 06:23:25;;;;;;;;;;;;;;;-143.48;88.67;118439.88;5054958;28;19963;-67
2023/01/08 06:25:54;;;;;;;;;;;;;;;-143.48;89.01;118439.88;5056199;28;19921;-66
2023/01/08 06:28:20;;;;;;;;;;;;;;;-143.48;89.57;118439.88;5053855;28;20003;-67
2023/01/08 06:30:45;;;;;;;;;;;;;;;-143.48;89.97;118439.88;5053811;28;19947;-66
2023/01/08 06:33:10;;;;;;;;;;;;;;;-143.48;89.54;118439.88;5039701;28;20003;-66
2023/01/08 06:35:36;;;;;;;;;;;;;;;-143.48;90.32;118439.88;5056004;28;19909;-69
2023/01/08 06:38:01;;;;;;;;;;;;;;;-143.48;90.15;118439.88;5054466;28;19995;-67
2023/01/08 06:40:26;;;;;;;;;;;;;;;-143.48;90.69;118439.88;5036324;28;20364;-67
2023/01/08 06:42:51;;;;;;;;;;;;;;;-143.48;90.64;118439.88;5035888;28;20355;-67
2023/01/08 06:45:16;;;;;;;;;;;;;;;-143.48;91.16;118439.88;5053805;28;19913;-67
2023/01/08 06:47:42;;;;;;;;;;;;;;;-143.48;91.12;118439.88;5053435;28;19940;-67
2023/01/08 06:50:07;;;;;;;;;;;;;;;-143.48;91.69;118439.88;5053601;28;19908;-67
2023/01/08 06:52:33;;;;;;;;;;;;;;;-143.48;91.56;118439.88;5053584;28;19908;-67
2023/01/08 06:54:58;;;;;;;;;;;;;;;-143.48;92.01;118439.88;5053893;28;20354;-67
2023/01/08 06:57:23;;;;;;;;;;;;;;;-143.48;92.07;118439.88;5053611;28;19908;-67
2023/01/08 06:59:48;;;;;;;;;;;;;;;-143.48;92.21;118439.88;5053480;28;20050;-67
2023/01/08 07:02:14;;;;;;;;;;;;;;;-143.48;92.66;118439.88;5035632;28;19908;-67
2023/01/08 07:04:39;;;;;;;;;;;;;;;-143.48;92.94;118439.88;5053963;28;19909;-69
2023/01/08 07:07:05;;;;;;;;;;;;;;;-143.48;93.38;118439.88;5044768;28;19915;-69
2023/01/08 07:09:30;;;;;;;;;;;;;;;-143.48;93.38;118439.88;5041267;28;19920;-68
2023/01/08 07:11:55;;;;;;;;;;;;;;;-143.48;93.46;118439.88;5053329;28;20280;-68
2023/01/08 07:14:20;;;;;;;;;;;;;;;-143.48;93.45;118439.88;5053297;28;20295;-67
2023/01/08 07:16:46;;;;;;;;;;;;;;;-143.48;93.14;118439.88;5054073;28;19909;-66
2023/01/08 07:19:11;;;;;;;;;;;;;;;-143.48;92.74;118439.88;5053463;28;19912;-65
2023/01/08 07:21:36;;;;;;;;;;;;;;;-143.48;92.88;118439.88;5053295;28;20395;-67
2023/01/08 07:24:01;;;;;;;;;;;;;;;-143.48;91.90;118439.88;5053280;28;19992;-66
2023/01/08 07:26:26;;;;;;;;;;;;;;;-143.48;91.35;118439.88;5052948;28;19913;-66
2023/01/08 07:28:52;;;;;;;;;;;;;;;-143.48;91.50;118439.88;5054908;28;19958;-67
2023/01/08 07:31:17;;;;;;;;;;;;;;;-143.48;90.88;118439.88;5053533;28;20364;-66
2023/01/08 07:33:42;;;;;;;;;;;;;;;-143.48;90.68;118439.88;5053223;28;19916;-66
2023/01/08 07:36:07;;;;;;;;;;;;;;;-143.48;90.88;118439.88;5055226;28;19962;-66
2023/01/08 07:38:33;;;;;;;;;;;;;;;-143.48;90.66;118439.88;5056549;28;20364;-66
2023/01/08 07:40:58;;;;;;;;;;;;;;;-143.48;90.71;118439.88;5038679;28;19915;-67
2023/01/08 07:43:24;;;;;;;;;;;;;;;-143.48;91.13;118439.88;5056694;28;19912;-68
2023/01/08 07:45:49;;;;;;;;;;;;;;;-143.48;90.82;118439.88;5056800;28;20053;-67
2023/01/08 07:48:15;;;;;;;;;;;;;;;-143.48;90.22;118439.88;5056919;28;19909;-67
2023/01/08 07:50:41;;;;;;;;;;;;;;;-143.48;90.38;118439.88;5056625;28;19952;-67
2023/01/08 07:53:06;;;;;;;;;;;;;;;-143.48;90.21;118439.88;5056618;28;20356;-67
2023/01/08 07:55:31;;;;;;;;;;;;;;;-143.48;90.03;118439.88;5056524;28;19962;-68
2023/01/08 07:57:57;;;;;;;;;;;;;;;-143.48;89.79;118439.88;5056625;28;20363;-67
2023/01/08 08:00:22;;;;;;;;;;;;;;;-143.48;90.32;118439.88;5056282;28;19908;-67
2023/01/08 08:02:47;;;;;;;;;;;;;;;-143.48;89.98;118439.88;5056300;28;20018;-67
2023/01/08 08:05:13;;;;;;;;;;;;;;;-143.48;89.94;118439.88;5056018;28;19958;-67
2023/01/08 08:07:38;;;;;;;;;;;;;;;-143.48;90.66;118439.88;5056104;28;20331;-67
2023/01/08 08:10:04;;;;;;;;;;;;;;;-143.48;90.12;118439.88;5056255;28;19980;-67
2023/01/08 08:12:29;;;;;;;;;;;;;;;-143.48;90.74;118439.88;5058239;28;19916;-67
2023/01/08 08:14:54;;;;;;;;;;;;;;;-143.48;90.28;118439.88;5056825;28;19908;-66
2023/01/08 08:17:19;;;;;;;;;;;;;;;-143.48;90.41;118439.88;5056298;28;20229;-66
2023/01/08 08:19:44;;;;;;;;;;;;;;;-143.48;90.03;118439.88;5055903;28;19909;-67
2023/01/08 08:22:12;;;;;;;;;;;;;;;-143.48;89.94;118439.88;5057021;28;19909;-67
2023/01/08 08:24:37;;;;;;;;;;;;;;;-143.48;89.50;118439.88;5037812;28;19909;-67
2023/01/08 08:27:02;;;;;;;;;;;;;;;-143.48;89.36;118439.88;5054939;28;20003;-67
2023/01/08 08:29:27;;;;;;;;;;;;;;;-143.48;88.94;118439.88;5056056;28;19915;-67
2023/01/08 08:31:52;;;;;;;;;;;;;;;-143.48;89.34;118439.88;5055747;28;19909;-67
2023/01/08 08:34:19;;;;;;;;;;;;;;;-143.48;88.58;118439.88;5055641;28;19986;-67
2023/01/08 08:36:45;;;;;;;;;;;;;;;-143.48;88.33;118439.88;5055634;28;19999;-67
2023/01/08 08:39:10;;;;;;;;;;;;;;;-143.48;87.87;118439.88;5037623;28;20444;-67
2023/01/08 08:41:35;;;;;;;;;;;;;;;-143.48;87.57;118439.88;5055788;28;20007;-66
2023/01/08 08:44:00;;;;;;;;;;;;;;;-143.48;87.23;118439.88;5055584;28;19969;-66
2023/01/08 08:46:25;;;;;;;;;;;;;;;-143.48;86.74;118439.88;5055107;28;20280;-66
2023/01/08 08:48:50;;;;;;;;;;;;;;;-143.48;86.59;118439.88;5055102;28;19950;-65
2023/01/08 08:51:16;;;;;;;;;;;;;;;-143.48;85.54;118439.88;5055567;28;20368;-66
2023/01/08 08:53:41;;;;;;;;;;;;;;;-143.48;85.62;118439.88;5055451;28;19908;-66
2023/01/08 08:56:06;;;;;;;;;;;;;;;-143.48;84.98;118439.88;5055090;28;19909;-66
2023/01/08 08:58:31;;;;;;;;;;;;;;;-143.48;84.67;118439.88;5055304;28;20280;-66
2023/01/08 09:01:00;;;;;;;;;;;;;;;-143.48;83.88;118439.88;5055113;28;20284;-65
2023/01/08 09:03:25;;;;;;;;;;;;;;;-143.48;84.23;118439.88;5055349;28;20418;-66
2023/01/08 09:05:50;;;;;;;;;;;;;;;-143.48;82.96;118439.88;5055530;28;19921;-66
2023/01/08 09:08:15;;;;;;;;;;;;;;;-143.48;83.53;118439.88;5055104;28;19909;-66
2023/01/08 09:10:41;;;;;;;;;;;;;;;-143.48;82.52;118439.88;5054909;28;19913;-66
2023/01/08 09:13:06;;;;;;;;;;;;;;;-143.48;82.91;118439.88;5054998;28;19908;-66
2023/01/08 09:15:32;;;;;;;;;;;;;;;-143.48;82.43;118439.88;5036936;28;20296;-66
2023/01/08 09:17:57;;;;;;;;;;;;;;;-143.48;81.47;118439.88;5054910;28;19956;-66
2023/01/08 09:20:23;;;;;;;;;;;;;;;-143.48;81.50;118439.88;5055229;28;19916;-67
2023/01/08 09:22:48;;;;;;;;;;;;;;;-143.48;81.23;118439.88;5054763;28;19932;-68
2023/01/08 09:25:14;;;;;;;;;;;;;;;-143.48;81.44;118439.88;5036633;28;19913;-66
2023/01/08 09:27:39;;;;;;;;;;;;;;;-143.48;81.51;118439.88;5054730;28;19909;-66
2023/01/08 09:30:05;;;;;;;;;;;;;;;-143.48;81.16;118439.88;5054686;28;19913;-66
2023/01/08 09:32:30;;;;;;;;;;;;;;;-143.48;80.60;118439.88;5058415;28;19915;-67
2023/01/08 09:34:55;;;;;;;;;;;;;;;-143.48;80.20;118439.88;5055071;28;20388;-65
2023/01/08 09:37:22;;;;;;;;;;;;;;;-143.48;80.28;118439.88;5054434;28;19913;-65
2023/01/08 09:39:47;;;;;;;;;;;;;;;-143.48;80.12;118439.88;5054877;28;20348;-64
2023/01/08 09:42:13;;;;;;;;;;;;;;;-143.48;80.29;118439.88;5036582;28;19948;-65
2023/01/08 09:44:41;;;;;;;;;;;;;;;-143.48;79.58;118439.88;5054205;28;19915;-65
2023/01/08 09:47:16;;;;;;;;;;;;;;;-143.48;80.25;118439.88;5054292;28;19916;-62
2023/01/08 09:49:44;;;;;;;;;;;;;;;-143.48;79.66;118439.88;5054348;28;19913;-63
2023/01/08 09:52:11;;;;;;;;;;;;;;;-143.48;79.01;118439.88;5054934;28;19947;-63
2023/01/08 09:54:36;;;;;;;;;;;;;;;-143.48;79.64;118439.88;5036181;28;19909;-63
2023/01/08 09:57:02;;;;;;;;;;;;;;;-143.48;79.44;118439.88;5054066;28;20284;-63
2023/01/08 09:59:27;;;;;;;;;;;;;;;-143.48;79.56;118439.88;5035986;28;20284;-63
2023/01/08 10:01:52;;;;;;;;;;;;;;;-143.48;79.80;118439.88;5053940;28;19909;-65
2023/01/08 10:04:19;;;;;;;;;;;;;;;-143.48;79.19;118439.88;5053949;28;19909;-65
2023/01/08 10:06:55;;;;;;;;;;;;;;;-143.48;79.02;118439.88;5054022;28;19913;-63
2023/01/08 10:09:25;;;;;;;;;;;;;;;-143.48;79.56;118439.88;5054159;28;19908;-65
2023/01/08 10:11:52;;;;;;;;;;;;;;;-143.48;78.96;118439.88;5035999;28;20368;-63
2023/01/08 10:14:21;;;;;;;;;;;;;;;-143.48;78.38;118439.88;5053990;28;19912;-63
2023/01/08 10:16:49;;;;;;;;;;;;;;;-143.48;73.32;118439.88;5053780;28;19974;-63
2023/01/08 10:19:14;;;;;;;;;;;;;;;-143.48;60.23;118439.88;5057532;28;19912;-65
2023/01/08 10:21:40;;;;;;;;;;;;;;;-143.48;58.01;118439.88;5060327;28;19935;-67
2023/01/08 10:24:05;;;;;;;;;;;;;;;-143.48;58.03;118439.88;5055802;28;19987;-66
2023/01/08 10:26:32;;;;;;;;;;;;;;;-143.48;53.17;118439.88;5035569;28;20032;-66
2023/01/08 10:29:06;;;;;;;;;;;;;;;-143.48;54.65;118439.88;5035873;28;19908;-65
2023/01/08 10:31:32;;;;;;;;;;;;;;;-143.48;55.32;118439.88;5053692;28;19916;-68
2023/01/08 10:34:06;;;;;;;;;;;;;;;-143.48;51.84;118439.88;5053473;28;20260;-68
2023/01/08 10:36:38;;;;;;;;;;;;;;;-143.48;50.01;118439.88;5035587;28;20360;-68
2023/01/08 10:39:03;;;;;;;;;;;;;;;-143.48;54.34;118439.88;5053468;28;19968;-67
2023/01/08 10:41:29;;;;;;;;;;;;;;;-143.48;58.39;118439.88;5053484;28;19909;-68
2023/01/08 10:44:00;;;;;;;;;;;;;;;-143.48;53.98;118439.88;5055326;28;19909;-67
2023/01/08 10:46:35;;;;;;;;;;;;;;;-143.48;51.41;118439.88;5053515;28;20241;-68
2023/01/08 10:49:01;;;;;;;;;;;;;;;-143.48;48.52;118439.88;5054100;28;19909;-68
2023/01/08 10:51:28;;;;;;;;;;;;;;;-143.48;47.27;118439.88;5054854;28;19916;-67
2023/01/08 10:53:54;;;;;;;;;;;;;;;-143.48;47.82;118439.88;5053414;28;19909;-70
2023/01/08 10:56:43;;;;;;;;;;;;;;;-143.48;48.79;118439.88;5053325;28;19909;-69
2023/01/08 10:59:22;;;;;;;;;;;;;;;-143.48;48.40;118439.88;5044028;28;19909;-69
2023/01/08 11:01:48;;;;;;;;;;;;;;;-143.48;50.36;118439.88;5055852;28;19915;-71
2023/01/08 11:04:32;;;;;;;;;;;;;;;-143.48;55.31;118439.88;5056223;28;19909;-70
2023/01/08 11:07:02;;;;;;;;;;;;;;;-143.48;59.42;118439.88;5054261;28;20277;-70
2023/01/08 11:09:32;;;;;;;;;;;;;;;-143.48;63.69;118439.88;5055229;28;20315;-71
2023/01/08 11:11:57;;;;;;;;;;;;;;;-143.48;65.18;118439.88;5060271;28;19919;-71
2023/01/08 11:14:36;;;;;;;;;;;;;;;-143.48;66.07;118439.88;5059162;28;19909;-71
2023/01/08 11:17:10;;;;;;;;;;;;;;;-143.48;68.41;118439.88;5040257;28;19913;-70
2023/01/08 11:19:35;;;;;;;;;;;;;;;-143.48;69.95;118439.88;5042837;28;20368;-70
2023/01/08 11:22:07;;;;;;;;;;;;;;;-143.48;69.97;118439.88;5059777;28;19901;-71
2023/01/08 11:24:36;;;;;;;;;;;;;;;-143.48;70.22;118439.88;5040060;28;20387;-71
2023/01/08 11:27:04;;;;;;;;;;;;;;;-143.48;69.97;118439.88;5058734;28;19912;-71
2023/01/08 11:29:37;;;;;;;;;;;;;;;-143.48;70.00;118439.88;5063372;28;19908;-71
2023/01/08 11:32:02;;;;;;;;;;;;;;;-143.48;70.37;118439.88;5058994;28;19908;-71
2023/01/08 11:34:38;;;;;;;;;;;;;;;-143.48;71.04;118439.88;5058977;28;20394;-70
2023/01/08 11:37:10;;;;;;;;;;;;;;;-143.48;71.55;118439.88;5039765;28;20380;-70
2023/01/08 11:39:36;;;;;;;;;;;;;;;-143.48;71.39;118439.88;5060237;28;20420;-70
2023/01/08 11:42:04;;;;;;;;;;;;;;;-143.48;70.98;118439.88;5058625;28;19938;-70
2023/01/08 11:44:32;;;;;;;;;;;;;;;-143.48;71.77;118439.88;5058023;28;19983;-71
2023/01/08 11:46:57;;;;;;;;;;;;;;;-143.48;72.11;118439.88;5070592;28;19917;-72
2023/01/08 11:49:23;;;;;;;;;;;;;;;-143.48;71.86;118439.88;5067399;28;20265;-71
2023/01/08 11:51:54;;;;;;;;;;;;;;;-143.48;72.69;118439.88;5039265;28;19915;-71
2023/01/08 11:54:49;;;;;;;;;;;;;;;-143.48;72.95;118439.88;5057826;28;19908;-72
2023/01/08 11:57:32;;;;;;;;;;;;;;;-143.48;73.49;118439.88;5059263;28;19955;-71
2023/01/08 12:00:16;;;;;;;;;;;;;;;-143.48;73.16;118439.88;5058758;28;19912;-71
2023/01/08 12:02:58;;;;;;;;;;;;;;;-143.48;74.13;118439.88;5057776;28;19912;-71
2023/01/08 12:05:26;;;;;;;;;;;;;;;-143.48;73.55;118439.88;5057410;28;20291;-70
2023/01/08 12:07:59;;;;;;;;;;;;;;;-143.48;73.58;118439.88;5056284;28;19966;-70
2023/01/08 12:10:36;;;;;;;;;;;;;;;-143.48;71.26;118439.88;5056156;28;19916;-71
2023/01/08 12:13:20;;;;;;;;;;;;;;;-143.48;71.76;118439.88;5038180;28;20295;-71
2023/01/08 12:16:10;;;;;;;;;;;;;;;-143.48;71.74;118439.88;5055635;28;19959;-71